CheckWX is a tool to help pilots better visualize weather data.  It is not intended as a substitute for an official pre-flight weather briefing.

04:33:38 UTC

CYXJ TAF
Fort St John Airport
Fort St.John, Canada
TAF CYXJ 240038Z 2401/2413 VRB03KT P6SM SCT060 SCT180 FM240200 VRB03KT P6SM SCT060 TEMPO 2402/2405 VRB20G30KT 3SM TSRA BKN050CB FM240500 VRB03KT P6SM -SHRA SCT015 BKN040 TEMPO 2405/2408 4SM -SHRA BR BKN015 OVC030 FM240800 VRB03KT 4SM -SHRA BR SCT006 OVC012 RMK NXT FCST BY 240700Z

Jul-24@
01:00 UTC

Jul-24 @ 01:00 UTC

Jul-24@
02:00 UTC

Jul-24 @ 02:00 UTC

TAF CYXJ 240038Z 2401/2413 VRB03KT P6SM SCT060 SCT180

Expired

Wind
  • Variable at 3 KTS
Cloud Levels
  • Scattered at 6,000' AGL
  • Scattered at 18,000' AGL

Jul-24@
02:00 UTC

Jul-24 @ 02:00 UTC

Jul-24@
05:00 UTC

Jul-24 @ 05:00 UTC

TEMPO 2402/2405 VRB20G30KT 3SM TSRA BKN050CB

Temporary

Temporary Changes expected for less than half the time period

Wind
  • Variable at 20 KTS
  • {Gusting to 30 KTS
Conditions
Thunderstorm, Rain
Cloud Levels
  • Broken at 5,000' AGL

Jul-24@
02:00 UTC

Jul-24 @ 02:00 UTC

Jul-24@
05:00 UTC

Jul-24 @ 05:00 UTC

FM240200 VRB03KT P6SM SCT060

From

From Standard forecast or significant change

Wind
  • Variable at 3 KTS
Cloud Levels
  • Scattered at 6,000' AGL

Jul-24@
05:00 UTC

Jul-24 @ 05:00 UTC

Jul-24@
08:00 UTC

Jul-24 @ 08:00 UTC

FM240500 VRB03KT P6SM -SHRA SCT015 BKN040

From

From Standard forecast or significant change

Wind
  • Variable at 3 KTS
Conditions
Light Rain
Cloud Levels
  • Scattered at 1,500' AGL
  • Broken at 4,000' AGL

Jul-24@
05:00 UTC

Jul-24 @ 05:00 UTC

Jul-24@
08:00 UTC

Jul-24 @ 08:00 UTC

TEMPO 2405/2408 4SM -SHRA BR BKN015 OVC030

Temporary

Temporary Changes expected for less than half the time period

Conditions
Light Rain, Mist
Cloud Levels
  • Broken at 1,500' AGL
  • Overcast at 3,000' AGL

Jul-24@
08:00 UTC

Jul-24 @ 08:00 UTC

Jul-24@
13:00 UTC

Jul-24 @ 13:00 UTC

FM240800 VRB03KT 4SM -SHRA BR SCT006 OVC012 RMK NXT FCST BY 240700Z

From

From Standard forecast or significant change

Wind
  • Variable at 3 KTS
Conditions
Light Rain, Mist
Cloud Levels
  • Scattered at 600' AGL
  • Overcast at 1,200' AGL